FRM weather

Fairmont Municipal Airport
Fairmont, Minnesota, United States

Public forecast

Using degrees Fahrenheit for public forecast. Weather courtesy of forecast.io.

METAR (pilot weather report)

Retrieved 2019/07/18 17:56 UTC (34 minutes ago):

KFRM 181756Z AUTO VRB04KT 10SM CLR 29/25 A2970 RMK AO2 SLP049 T02940250 10294 20217 58017

TAF (pilot weather forecast)

Closest forecast is Mankato Regional Airport, 40.8 nm (75.6 km) NNE. Retrieved 2019/07/18 18:27 UTC (3 minutes ago):

TAF KMKT 181726Z 1818/1918 25005KT P6SM SCT020 SCT250 FM181900 22006KT P6SM FEW040 SCT250 FM182200 20006KT P6SM VCTS FEW025 SCT050CB BKN100 FM190300 VRB04KT P6SM SCT050 SCT100 FM191400 14006KT P6SM SCT050 SCT250